Time;durP1;ratioP1;P1;durP2;ratioP2;P2;SDS_P1;SDS_P2;PMS_P1;PMS_P2;Temp;Humidity;BMP_temperature;BMP_pressure;BME280_temperature;BME280_humidity;BME280_pressure;Samples;Min_cycle;Max_cycle;Signal;HPM_P1;HPM_P2
2021/08/05 00:00:37;;;;;;;8.68;7.00;;;16.10;99.90;;;;;;5095866;28;20119;-75
2021/08/05 00:03:03;;;;;;;7.93;7.22;;;16.20;99.90;;;;;;5094805;28;20549;-74
2021/08/05 00:05:29;;;;;;;9.65;8.13;;;16.10;99.90;;;;;;5096779;28;20048;-74
2021/08/05 00:07:54;;;;;;;11.52;8.35;;;16.10;99.90;;;;;;5096768;28;20036;-74
2021/08/05 00:10:20;;;;;;;14.27;8.70;;;16.10;99.90;;;;;;5095599;28;20123;-75
2021/08/05 00:12:46;;;;;;;9.50;8.10;;;16.10;99.90;;;;;;5095961;28;20077;-74
2021/08/05 00:15:11;;;;;;;10.15;7.20;;;16.10;99.90;;;;;;5096143;28;20064;-74
2021/08/05 00:17:37;;;;;;;10.88;6.70;;;16.10;99.90;;;;;;5096365;28;20361;-74
2021/08/05 00:20:04;;;;;;;9.50;6.05;;;16.10;99.90;;;;;;5095611;28;20432;-74
2021/08/05 00:22:30;;;;;;;6.10;5.45;;;16.00;99.90;;;;;;5096014;28;20110;-75
2021/08/05 00:24:55;;;;;;;6.22;4.47;;;16.00;99.90;;;;;;5095684;28;20162;-74
2021/08/05 00:27:21;;;;;;;6.55;4.50;;;16.00;99.90;;;;;;5096142;28;20036;-74
2021/08/05 00:29:47;;;;;;;5.45;4.18;;;16.00;99.90;;;;;;5095694;28;20540;-74
2021/08/05 00:32:13;;;;;;;5.22;3.85;;;16.00;99.90;;;;;;5096059;28;20040;-74
2021/08/05 00:34:38;;;;;;;7.13;4.40;;;16.00;99.90;;;;;;5096212;28;20495;-75
2021/08/05 00:37:04;;;;;;;6.78;4.72;;;16.00;99.90;;;;;;5095617;28;20059;-74
2021/08/05 00:39:30;;;;;;;5.95;4.63;;;16.00;99.90;;;;;;5095406;28;20066;-74
2021/08/05 00:41:56;;;;;;;5.75;4.47;;;15.90;99.90;;;;;;5095396;28;20040;-74
2021/08/05 00:44:21;;;;;;;5.90;4.18;;;15.90;99.90;;;;;;5095747;28;20451;-74
2021/08/05 00:46:47;;;;;;;6.88;4.00;;;15.90;99.90;;;;;;5095385;28;20032;-74
2021/08/05 00:49:13;;;;;;;6.30;4.90;;;15.90;99.90;;;;;;5095336;28;20036;-74
2021/08/05 00:51:39;;;;;;;5.55;4.50;;;16.00;99.90;;;;;;5095509;28;20392;-74
2021/08/05 00:54:07;;;;;;;4.75;4.20;;;15.90;99.90;;;;;;5095241;28;20036;-74
2021/08/05 00:56:32;;;;;;;5.47;4.03;;;16.00;99.90;;;;;;5095369;28;20418;-74
2021/08/05 00:58:59;;;;;;;5.97;5.07;;;15.90;99.90;;;;;;5094999;28;20064;-75
2021/08/05 01:01:30;;;;;;;6.57;5.18;;;15.90;99.90;;;;;;5095070;28;20043;-74
2021/08/05 01:03:56;;;;;;;6.88;5.13;;;16.00;99.90;;;;;;5095056;28;20382;-74
2021/08/05 01:07:18;;;;;;;6.55;4.90;;;16.00;99.90;;;;;;5093790;28;20431;-74
2021/08/05 01:09:59;;;;;;;6.57;5.38;;;15.90;99.90;;;;;;5092966;28;20082;-74
2021/08/05 01:12:38;;;;;;;7.45;5.55;;;15.90;99.90;;;;;;5092796;28;20040;-74
2021/08/05 01:15:09;;;;;;;5.65;5.07;;;15.90;99.90;;;;;;5094333;28;20166;-74
2021/08/05 01:17:38;;;;;;;6.32;5.20;;;15.90;99.90;;;;;;5095296;28;20036;-74
2021/08/05 01:20:06;;;;;;;6.18;4.78;;;15.80;99.90;;;;;;5094500;28;20040;-74
2021/08/05 01:22:45;;;;;;;5.15;4.55;;;15.80;99.90;;;;;;5094674;28;20068;-74
2021/08/05 01:25:30;;;;;;;7.25;5.13;;;15.80;99.90;;;;;;5094671;28;20028;-74
2021/08/05 01:27:58;;;;;;;6.22;5.28;;;15.80;99.90;;;;;;5094696;28;20491;-74
2021/08/05 01:30:26;;;;;;;6.78;4.40;;;15.80;99.90;;;;;;5094233;28;20116;-74
2021/08/05 01:32:53;;;;;;;5.90;3.95;;;15.80;99.90;;;;;;5094617;28;20468;-74
2021/08/05 01:35:19;;;;;;;7.22;4.97;;;15.80;99.90;;;;;;5095084;28;20064;-74
2021/08/05 01:37:46;;;;;;;6.38;5.03;;;15.70;99.90;;;;;;5094427;28;20097;-74
2021/08/05 01:40:12;;;;;;;8.18;5.40;;;15.70;99.90;;;;;;5094335;28;20036;-74
2021/08/05 01:42:38;;;;;;;6.57;5.70;;;15.70;99.90;;;;;;5094205;28;20115;-74
2021/08/05 01:45:07;;;;;;;6.95;6.22;;;15.70;99.90;;;;;;5094646;28;20063;-74
2021/08/05 01:47:35;;;;;;;7.03;5.72;;;15.60;99.90;;;;;;5094454;28;20085;-74
2021/08/05 01:50:01;;;;;;;7.25;5.68;;;15.60;99.90;;;;;;5094006;28;20036;-74
2021/08/05 01:52:27;;;;;;;7.75;6.15;;;15.60;99.90;;;;;;5094827;28;20081;-74
2021/08/05 01:54:53;;;;;;;6.68;5.00;;;15.60;99.90;;;;;;5094554;28;20032;-74
2021/08/05 01:57:19;;;;;;;7.63;5.32;;;15.60;99.90;;;;;;5094072;28;20120;-74
2021/08/05 01:59:45;;;;;;;7.50;5.07;;;15.60;99.90;;;;;;5093908;28;20381;-74
2021/08/05 02:02:13;;;;;;;8.45;6.35;;;15.50;99.90;;;;;;5094431;28;20032;-74
2021/08/05 02:04:42;;;;;;;9.73;6.90;;;15.60;99.90;;;;;;5094160;28;20048;-74
2021/08/05 02:07:18;;;;;;;8.07;6.95;;;15.60;99.90;;;;;;5092745;28;20110;-74
2021/08/05 02:10:11;;;;;;;7.72;6.55;;;15.60;99.90;;;;;;5093836;28;20062;-74
2021/08/05 02:12:46;;;;;;;7.55;6.50;;;15.60;99.90;;;;;;5093827;28;20123;-75
2021/08/05 02:15:14;;;;;;;6.78;6.07;;;15.60;99.90;;;;;;5093736;28;20036;-74
2021/08/05 02:17:42;;;;;;;7.68;6.43;;;15.50;99.90;;;;;;5094004;28;20042;-74
2021/08/05 02:20:10;;;;;;;8.30;6.22;;;15.60;99.90;;;;;;5093636;28;20035;-74
2021/08/05 02:22:39;;;;;;;6.90;5.80;;;15.60;99.90;;;;;;5093972;28;20060;-75
2021/08/05 02:25:06;;;;;;;10.50;7.05;;;15.60;99.90;;;;;;5093546;28;20078;-74
2021/08/05 02:27:33;;;;;;;9.38;6.72;;;15.50;99.90;;;;;;5094021;28;20032;-74
2021/08/05 02:29:59;;;;;;;9.07;6.65;;;15.50;99.90;;;;;;5093563;28;20044;-74
2021/08/05 02:32:27;;;;;;;9.05;7.13;;;15.40;99.90;;;;;;5093578;28;20071;-74
2021/08/05 02:34:54;;;;;;;9.18;7.10;;;15.40;99.90;;;;;;5093853;28;20089;-74
2021/08/05 02:37:21;;;;;;;9.18;7.45;;;15.40;99.90;;;;;;5093941;28;20384;-74
2021/08/05 02:39:47;;;;;;;8.45;6.88;;;15.40;99.90;;;;;;5093320;28;20040;-74
2021/08/05 02:42:14;;;;;;;9.13;6.22;;;15.40;99.90;;;;;;5093251;28;20139;-74
2021/08/05 02:44:40;;;;;;;13.15;7.88;;;15.40;99.90;;;;;;5093503;28;20119;-74
2021/08/05 02:47:06;;;;;;;8.40;7.13;;;15.40;99.90;;;;;;5093435;28;20115;-74
2021/08/05 02:49:33;;;;;;;11.50;8.05;;;15.40;99.90;;;;;;5093151;28;20075;-75
2021/08/05 02:51:59;;;;;;;11.20;8.40;;;15.30;99.90;;;;;;5093792;28;20089;-74
2021/08/05 02:54:25;;;;;;;8.57;7.40;;;15.30;99.90;;;;;;5093350;28;20036;-74
2021/08/05 02:56:52;;;;;;;8.68;7.28;;;15.20;99.90;;;;;;5093522;28;20090;-74
2021/08/05 02:59:18;;;;;;;9.10;7.57;;;15.20;99.90;;;;;;5092940;28;20036;-74
2021/08/05 03:01:44;;;;;;;10.45;7.63;;;15.20;99.90;;;;;;5093243;28;20127;-74
2021/08/05 03:04:11;;;;;;;8.93;7.68;;;15.20;99.90;;;;;;5093896;28;20123;-74
2021/08/05 03:06:39;;;;;;;9.50;7.80;;;15.20;99.90;;;;;;5093263;28;20101;-74
2021/08/05 03:09:05;;;;;;;9.77;8.18;;;15.20;99.90;;;;;;5093318;28;20036;-74
2021/08/05 03:11:31;;;;;;;9.90;7.40;;;15.10;99.90;;;;;;5093807;28;20040;-74
2021/08/05 03:13:57;;;;;;;11.25;8.63;;;15.10;99.90;;;;;;5093283;28;20040;-74
2021/08/05 03:16:23;;;;;;;9.45;7.72;;;15.10;99.90;;;;;;5093574;28;20400;-74
2021/08/05 03:18:48;;;;;;;9.50;7.95;;;15.10;99.90;;;;;;5093000;28;20153;-74
2021/08/05 03:21:14;;;;;;;8.85;7.70;;;15.10;99.90;;;;;;5093575;28;20391;-74
2021/08/05 03:23:40;;;;;;;11.68;7.85;;;15.10;99.90;;;;;;5093766;28;20040;-74
2021/08/05 03:26:06;;;;;;;11.52;8.30;;;15.10;99.90;;;;;;5093008;28;20036;-74
2021/08/05 03:28:32;;;;;;;12.05;8.18;;;15.10;99.90;;;;;;5092714;28;20047;-75
2021/08/05 03:30:58;;;;;;;8.75;7.45;;;15.00;99.90;;;;;;5092957;28;20472;-74
2021/08/05 03:33:24;;;;;;;9.60;7.57;;;15.10;99.90;;;;;;5093419;28;20043;-74
2021/08/05 03:35:50;;;;;;;8.80;7.05;;;15.10;99.90;;;;;;5093240;28;20047;-74
2021/08/05 03:38:15;;;;;;;7.93;7.13;;;15.00;99.90;;;;;;5096622;28;20093;-74
2021/08/05 03:40:41;;;;;;;12.15;7.40;;;14.90;99.90;;;;;;5096392;28;20039;-74
2021/08/05 03:43:07;;;;;;;8.52;6.65;;;14.90;99.90;;;;;;5097128;28;20134;-74
2021/08/05 03:45:33;;;;;;;9.45;7.00;;;14.80;99.90;;;;;;5096622;28;20079;-74
2021/08/05 03:47:58;;;;;;;10.82;8.10;;;14.80;99.90;;;;;;5097123;28;20068;-74
2021/08/05 03:50:24;;;;;;;12.57;8.93;;;14.80;99.90;;;;;;5096237;28;20036;-74
2021/08/05 03:52:50;;;;;;;12.63;8.82;;;14.80;99.90;;;;;;5097101;28;20040;-74
2021/08/05 03:55:15;;;;;;;11.55;9.95;;;14.80;99.90;;;;;;5096488;28;20064;-74
2021/08/05 03:57:43;;;;;;;11.80;8.63;;;14.80;99.90;;;;;;5096538;28;20043;-74
2021/08/05 04:00:14;;;;;;;13.45;9.68;;;14.80;99.90;;;;;;5096203;28;20535;-74
2021/08/05 04:02:41;;;;;;;12.45;9.50;;;14.80;99.90;;;;;;5096657;28;20050;-74
2021/08/05 04:05:07;;;;;;;13.88;10.38;;;14.70;99.90;;;;;;5096785;28;20486;-75
2021/08/05 04:07:34;;;;;;;12.55;10.60;;;14.60;99.90;;;;;;5096840;28;20040;-74
2021/08/05 04:10:00;;;;;;;13.90;11.02;;;14.60;99.90;;;;;;5094973;28;20035;-74
2021/08/05 04:12:26;;;;;;;15.07;11.27;;;14.60;99.90;;;;;;5096208;28;20050;-74
2021/08/05 04:14:52;;;;;;;12.75;10.68;;;14.60;99.90;;;;;;5096275;28;20032;-74
2021/08/05 04:17:17;;;;;;;15.30;11.60;;;14.60;99.90;;;;;;5095316;28;20119;-74
2021/08/05 04:19:43;;;;;;;15.00;11.32;;;14.70;99.90;;;;;;5095690;28;20036;-74
2021/08/05 04:22:09;;;;;;;16.35;12.90;;;14.70;99.90;;;;;;5095728;28;20028;-74
2021/08/05 04:24:34;;;;;;;14.75;11.60;;;14.70;99.90;;;;;;5096506;28;20047;-74
2021/08/05 04:27:00;;;;;;;14.55;12.05;;;14.60;99.90;;;;;;5095950;28;20115;-74
2021/08/05 04:29:26;;;;;;;19.90;11.80;;;14.60;99.90;;;;;;5094604;28;20497;-74
2021/08/05 04:31:52;;;;;;;15.98;12.27;;;14.60;99.90;;;;;;5096148;28;20036;-74
2021/08/05 04:34:17;;;;;;;16.67;11.95;;;14.60;99.90;;;;;;5096329;28;20480;-74
2021/08/05 04:36:43;;;;;;;15.65;12.43;;;14.60;99.90;;;;;;5095940;28;20051;-74
2021/08/05 04:39:09;;;;;;;16.60;12.52;;;14.70;99.90;;;;;;5095832;28;20134;-75
2021/08/05 04:41:34;;;;;;;15.20;12.57;;;14.60;99.90;;;;;;5095639;28;20094;-74
2021/08/05 04:44:00;;;;;;;15.63;11.95;;;14.70;99.90;;;;;;5095718;28;20174;-74
2021/08/05 04:46:26;;;;;;;15.38;13.20;;;14.80;99.90;;;;;;5096092;28;20044;-74
2021/08/05 04:48:52;;;;;;;15.35;12.18;;;14.80;99.90;;;;;;5094589;28;20036;-74
2021/08/05 04:51:18;;;;;;;14.82;13.32;;;14.80;99.90;;;;;;5094508;28;20050;-74
2021/08/05 04:53:44;;;;;;;14.57;12.82;;;14.90;99.90;;;;;;5096107;28;20118;-74
2021/08/05 04:56:10;;;;;;;16.73;12.68;;;15.00;99.90;;;;;;5095267;28;20119;-74
2021/08/05 04:58:38;;;;;;;19.17;13.38;;;15.10;99.90;;;;;;5095211;28;20464;-75
2021/08/05 05:01:04;;;;;;;18.13;12.45;;;15.30;99.90;;;;;;5095181;28;20036;-75
2021/08/05 05:03:30;;;;;;;17.02;13.70;;;15.40;99.90;;;;;;5095164;28;20044;-75
2021/08/05 05:05:57;;;;;;;17.45;13.25;;;15.50;99.90;;;;;;5094948;28;20040;-75
2021/08/05 05:08:24;;;;;;;19.65;12.52;;;15.60;99.90;;;;;;5095047;28;20040;-75
2021/08/05 05:10:52;;;;;;;15.10;13.45;;;15.80;99.90;;;;;;5094920;28;20036;-73
2021/08/05 05:13:19;;;;;;;17.95;13.52;;;15.90;99.90;;;;;;5094917;28;20040;-74
2021/08/05 05:15:45;;;;;;;15.02;13.07;;;16.10;99.90;;;;;;5095356;28;20089;-74
2021/08/05 05:18:13;;;;;;;18.27;14.18;;;16.20;99.90;;;;;;5094958;28;20125;-74
2021/08/05 05:20:38;;;;;;;18.48;14.45;;;16.40;99.90;;;;;;5094380;28;20392;-75
2021/08/05 05:23:06;;;;;;;15.95;12.57;;;16.60;99.90;;;;;;5095019;28;20043;-74
2021/08/05 05:25:32;;;;;;;14.52;12.93;;;16.80;99.90;;;;;;5093708;28;20036;-73
2021/08/05 05:27:58;;;;;;;15.02;12.25;;;17.00;99.90;;;;;;5095005;28;20082;-74
2021/08/05 05:30:24;;;;;;;15.48;13.48;;;17.20;99.90;;;;;;5094262;28;20063;-74
2021/08/05 05:32:50;;;;;;;13.98;12.18;;;17.20;99.90;;;;;;5094812;28;20089;-74
2021/08/05 05:35:17;;;;;;;16.42;13.70;;;17.50;99.90;;;;;;5095021;28;20044;-74
2021/08/05 05:37:45;;;;;;;15.07;12.07;;;17.70;99.90;;;;;;5094557;28;20040;-74
2021/08/05 05:40:12;;;;;;;13.93;12.05;;;17.90;99.90;;;;;;5094122;28;20047;-75
2021/08/05 05:42:39;;;;;;;14.65;12.73;;;18.10;99.90;;;;;;5094545;28;20067;-74
2021/08/05 05:45:06;;;;;;;18.20;12.88;;;17.90;99.90;;;;;;5094397;28;20120;-74
2021/08/05 05:47:32;;;;;;;19.25;13.15;;;17.80;99.90;;;;;;5094491;28;20036;-74
2021/08/05 05:49:58;;;;;;;15.48;12.40;;;17.80;99.90;;;;;;5092694;28;20062;-74
2021/08/05 05:52:25;;;;;;;16.30;14.40;;;17.70;99.90;;;;;;5094364;28;20043;-73
2021/08/05 05:54:50;;;;;;;15.90;12.80;;;17.80;99.90;;;;;;5094425;28;20119;-73
2021/08/05 05:57:16;;;;;;;16.65;11.43;;;17.90;99.90;;;;;;5094294;28;20496;-72
2021/08/05 05:59:42;;;;;;;20.65;14.20;;;18.00;99.90;;;;;;5093981;28;20438;-70
2021/08/05 06:02:08;;;;;;;15.80;12.80;;;17.90;99.90;;;;;;5093650;28;20438;-70
2021/08/05 06:04:35;;;;;;;16.63;13.60;;;17.70;99.90;;;;;;5094113;28;20040;-70
2021/08/05 06:07:01;;;;;;;15.88;13.23;;;17.80;99.90;;;;;;5093988;28;20093;-70
2021/08/05 06:09:26;;;;;;;15.73;11.98;;;18.10;99.90;;;;;;5093635;28;20040;-70
2021/08/05 06:11:52;;;;;;;14.90;11.65;;;18.30;99.90;;;;;;5093929;28;20036;-70
2021/08/05 06:14:17;;;;;;;14.68;12.30;;;18.60;99.90;;;;;;5093797;28;20040;-70
2021/08/05 06:16:43;;;;;;;17.80;12.98;;;18.80;99.90;;;;;;5094406;28;20101;-70
2021/08/05 06:19:10;;;;;;;14.15;11.40;;;18.90;99.90;;;;;;5093943;28;20494;-70
2021/08/05 06:21:35;;;;;;;13.48;11.27;;;19.20;99.90;;;;;;5093600;28;20476;-70
2021/08/05 06:24:01;;;;;;;13.57;11.95;;;19.20;99.90;;;;;;5093712;28;20047;-70
2021/08/05 06:26:27;;;;;;;12.68;11.30;;;19.00;99.90;;;;;;5093992;28;20124;-70
2021/08/05 06:28:53;;;;;;;12.77;10.63;;;18.70;99.90;;;;;;5093442;28;20043;-70
2021/08/05 06:31:19;;;;;;;12.60;10.10;;;18.50;99.90;;;;;;5093646;28;20035;-70
2021/08/05 06:33:47;;;;;;;12.20;9.65;;;18.50;99.90;;;;;;5093527;28;20047;-70
2021/08/05 06:36:13;;;;;;;10.80;9.63;;;18.30;99.90;;;;;;5092321;28;20402;-71
2021/08/05 06:38:39;;;;;;;12.55;9.57;;;18.30;99.90;;;;;;5093490;28;20051;-70
2021/08/05 06:41:05;;;;;;;11.20;9.90;;;18.30;99.90;;;;;;5093351;28;20032;-70
2021/08/05 06:43:31;;;;;;;10.75;9.60;;;18.30;99.90;;;;;;5093949;28;20044;-70
2021/08/05 06:45:56;;;;;;;11.77;8.45;;;18.40;99.90;;;;;;5093331;28;20385;-70
2021/08/05 06:48:22;;;;;;;9.93;8.30;;;18.40;99.90;;;;;;5094074;28;20039;-70
2021/08/05 06:50:48;;;;;;;10.57;8.52;;;18.50;99.90;;;;;;5092990;28;20036;-70
2021/08/05 06:53:13;;;;;;;10.20;8.75;;;18.60;99.90;;;;;;5093347;28;20047;-70
2021/08/05 06:55:39;;;;;;;11.48;8.50;;;18.70;99.90;;;;;;5093296;28;20040;-70
2021/08/05 06:58:05;;;;;;;10.95;9.23;;;19.00;99.90;;;;;;5093477;28;20039;-70
2021/08/05 07:00:31;;;;;;;8.27;7.40;;;19.00;99.90;;;;;;5092881;28;20039;-70
2021/08/05 07:02:56;;;;;;;12.55;9.25;;;19.30;99.90;;;;;;5093190;28;20402;-70
2021/08/05 07:05:23;;;;;;;11.10;9.07;;;19.30;99.90;;;;;;5093854;28;20066;-70
2021/08/05 07:07:50;;;;;;;10.38;9.05;;;19.40;99.90;;;;;;5092525;28;20391;-70
2021/08/05 07:10:16;;;;;;;11.90;9.07;;;19.70;99.90;;;;;;5093194;28;20529;-70
2021/08/05 07:12:42;;;;;;;13.30;8.80;;;20.10;99.90;;;;;;5095544;28;20036;-71
2021/08/05 07:15:08;;;;;;;10.95;9.85;;;20.60;99.90;;;;;;5097678;28;20036;-70
2021/08/05 07:17:36;;;;;;;13.07;10.93;;;20.50;99.90;;;;;;5097786;28;20040;-71
2021/08/05 07:20:02;;;;;;;11.48;10.38;;;20.30;99.90;;;;;;5096856;28;20043;-71
2021/08/05 07:22:28;;;;;;;12.40;11.02;;;20.70;99.90;;;;;;5096903;28;20059;-70
2021/08/05 07:24:54;;;;;;;11.18;9.70;;;20.90;99.90;;;;;;5097227;28;20476;-70
2021/08/05 07:27:19;;;;;;;12.10;10.18;;;21.00;99.90;;;;;;5097012;28;20043;-70
2021/08/05 07:29:45;;;;;;;8.90;8.00;;;21.20;99.90;;;;;;5096810;28;20537;-70
2021/08/05 07:32:11;;;;;;;8.85;7.43;;;21.20;99.90;;;;;;5096770;28;20032;-71
2021/08/05 07:34:37;;;;;;;10.25;7.75;;;21.70;99.90;;;;;;5096874;28;20051;-70
2021/08/05 07:37:03;;;;;;;8.93;7.45;;;21.90;99.90;;;;;;5096970;28;20034;-70
2021/08/05 07:39:30;;;;;;;10.00;7.97;;;22.20;99.90;;;;;;5096354;28;20516;-71
2021/08/05 07:41:56;;;;;;;8.82;7.03;;;22.30;99.90;;;;;;5095439;28;20117;-70
2021/08/05 07:44:21;;;;;;;7.15;6.32;;;22.20;99.90;;;;;;5096573;28;20068;-70
2021/08/05 07:46:48;;;;;;;7.30;6.60;;;22.20;99.90;;;;;;5096545;28;20115;-70
2021/08/05 07:49:14;;;;;;;6.30;4.47;;;22.40;99.90;;;;;;5096252;28;20503;-71
2021/08/05 07:51:40;;;;;;;7.03;5.03;;;22.30;99.90;;;;;;5096420;28;20111;-71
2021/08/05 07:54:05;;;;;;;12.05;7.38;;;22.40;99.90;;;;;;5096559;28;20067;-70
2021/08/05 07:56:31;;;;;;;7.93;6.22;;;22.30;99.90;;;;;;5096744;28;20043;-70
2021/08/05 07:58:57;;;;;;;7.43;6.55;;;22.60;99.90;;;;;;5096468;28;20032;-71
2021/08/05 08:01:23;;;;;;;8.32;5.68;;;22.70;99.90;;;;;;5096166;28;20040;-71
2021/08/05 08:03:48;;;;;;;6.68;5.13;;;22.60;99.90;;;;;;5096376;28;20050;-71
2021/08/05 08:06:15;;;;;;;5.68;4.45;;;22.80;99.90;;;;;;5096308;28;20506;-71
2021/08/05 08:08:41;;;;;;;8.25;5.07;;;22.70;99.90;;;;;;5096413;28;20039;-71
2021/08/05 08:11:06;;;;;;;7.43;5.55;;;22.90;99.90;;;;;;5096249;28;20035;-71
2021/08/05 08:13:32;;;;;;;7.50;5.68;;;22.80;99.90;;;;;;5096033;28;20046;-71
2021/08/05 08:15:58;;;;;;;6.90;4.97;;;22.90;99.70;;;;;;5096206;28;20047;-71
2021/08/05 08:18:24;;;;;;;6.68;5.45;;;23.10;99.90;;;;;;5096244;28;20039;-71
2021/08/05 08:20:51;;;;;;;7.32;5.57;;;23.20;99.50;;;;;;5096072;28;20469;-71
2021/08/05 08:23:16;;;;;;;6.32;5.18;;;23.40;99.50;;;;;;5094854;28;20059;-71
2021/08/05 08:25:42;;;;;;;6.82;5.50;;;23.50;98.90;;;;;;5096034;28;20485;-71
2021/08/05 08:28:08;;;;;;;6.97;5.40;;;23.50;98.10;;;;;;5095839;28;20502;-71
2021/08/05 08:30:35;;;;;;;5.85;4.25;;;23.40;98.50;;;;;;5094135;28;20480;-71
2021/08/05 08:33:01;;;;;;;6.68;4.57;;;23.30;98.80;;;;;;5095737;28;20036;-71
2021/08/05 08:35:27;;;;;;;7.35;5.50;;;23.60;98.80;;;;;;5095800;28;20069;-71
2021/08/05 08:37:53;;;;;;;6.05;5.45;;;23.60;98.70;;;;;;5095769;28;20095;-71
2021/08/05 08:40:19;;;;;;;6.70;5.22;;;23.60;98.90;;;;;;5095292;28;20036;-71
2021/08/05 08:42:45;;;;;;;7.18;5.22;;;23.70;99.20;;;;;;5095707;28;20503;-71
2021/08/05 08:45:13;;;;;;;6.32;4.78;;;23.70;97.70;;;;;;5095485;28;20119;-71
2021/08/05 08:47:41;;;;;;;7.38;4.90;;;23.60;97.60;;;;;;5095650;28;20372;-71
2021/08/05 08:50:07;;;;;;;9.90;5.93;;;23.60;97.70;;;;;;5094991;28;20051;-71
2021/08/05 08:52:35;;;;;;;6.72;5.32;;;23.80;98.90;;;;;;5094325;28;20036;-71
2021/08/05 08:55:03;;;;;;;9.43;5.47;;;23.70;98.30;;;;;;5095517;28;20032;-71
2021/08/05 08:57:34;;;;;;;5.68;4.35;;;23.80;97.40;;;;;;5095302;28;20483;-71
2021/08/05 09:00:03;;;;;;;5.32;4.55;;;23.90;97.60;;;;;;5094819;28;20036;-71
2021/08/05 09:02:30;;;;;;;8.50;5.97;;;23.80;97.80;;;;;;5095071;28;20407;-71
2021/08/05 09:04:56;;;;;;;6.75;4.53;;;23.90;98.30;;;;;;5095080;28;20051;-71
2021/08/05 09:07:23;;;;;;;6.95;4.95;;;23.90;97.90;;;;;;5095054;28;20040;-71
2021/08/05 09:09:50;;;;;;;4.82;3.75;;;24.00;96.90;;;;;;5094798;28;20044;-71
2021/08/05 09:12:16;;;;;;;3.88;3.08;;;24.00;96.60;;;;;;5094814;28;20036;-71
2021/08/05 09:14:48;;;;;;;6.03;4.57;;;24.00;95.70;;;;;;5095062;28;20089;-69
2021/08/05 09:17:17;;;;;;;7.75;4.88;;;24.00;95.80;;;;;;5095269;28;20071;-69
2021/08/05 09:19:42;;;;;;;6.55;4.40;;;24.00;97.10;;;;;;5094562;28;20441;-69
2021/08/05 09:22:08;;;;;;;7.60;6.07;;;24.20;96.80;;;;;;5094797;28;20043;-69
2021/08/05 09:24:34;;;;;;;5.45;4.95;;;24.10;96.70;;;;;;5094797;28;20040;-69
2021/08/05 09:27:02;;;;;;;8.95;4.38;;;24.00;95.60;;;;;;5094890;28;20040;-69
2021/08/05 09:29:29;;;;;;;2.08;1.77;;;24.30;95.20;;;;;;5094564;28;20483;-69
2021/08/05 09:32:00;;;;;;;2.20;1.77;;;24.20;92.00;;;;;;5094825;28;20040;-69
2021/08/05 09:34:37;;;;;;;1.77;1.50;;;24.20;92.30;;;;;;5094285;28;20043;-69
2021/08/05 09:37:16;;;;;;;3.70;1.45;;;24.10;87.80;;;;;;5094459;28;20039;-69
2021/08/05 09:39:45;;;;;;;3.88;2.45;;;24.00;83.60;;;;;;5094273;28;20032;-69
2021/08/05 09:42:15;;;;;;;2.78;1.83;;;24.00;89.90;;;;;;5094324;28;20043;-69
2021/08/05 09:44:42;;;;;;;3.05;2.63;;;24.00;91.20;;;;;;5094509;28;20040;-69
2021/08/05 09:47:20;;;;;;;4.68;2.28;;;24.00;90.90;;;;;;5094489;28;20039;-69
2021/08/05 09:49:45;;;;;;;4.05;2.78;;;24.00;92.10;;;;;;5093979;28;20384;-69
2021/08/05 09:52:11;;;;;;;4.07;1.75;;;24.00;92.60;;;;;;5093312;28;20040;-69
2021/08/05 09:54:41;;;;;;;3.40;2.03;;;24.00;92.70;;;;;;5094148;28;20123;-69
2021/08/05 09:57:08;;;;;;;3.85;2.30;;;24.10;92.30;;;;;;5094138;28;20047;-69
2021/08/05 09:59:50;;;;;;;5.05;2.58;;;24.20;92.60;;;;;;5094049;28;20070;-69
2021/08/05 10:02:16;;;;;;;4.00;2.28;;;24.30;91.80;;;;;;5094299;28;20048;-69
2021/08/05 10:04:45;;;;;;;4.38;2.58;;;24.30;90.90;;;;;;5093984;28;20066;-69
2021/08/05 10:07:11;;;;;;;5.78;2.40;;;24.30;90.90;;;;;;5094354;28;20036;-70
2021/08/05 10:09:38;;;;;;;3.90;2.88;;;24.00;91.40;;;;;;5093633;28;20048;-71
2021/08/05 10:12:24;;;;;;;4.25;2.90;;;23.90;91.10;;;;;;5094283;28;20047;-71
2021/08/05 10:15:02;;;;;;;4.10;3.00;;;23.80;92.90;;;;;;5093972;28;20039;-71
2021/08/05 10:17:29;;;;;;;3.47;2.80;;;23.90;91.90;;;;;;5093892;28;20047;-71
2021/08/05 10:19:58;;;;;;;3.55;3.05;;;23.80;93.10;;;;;;5093785;28;20068;-71
2021/08/05 10:22:24;;;;;;;3.15;2.85;;;24.00;93.50;;;;;;5093757;28;20037;-71
2021/08/05 10:24:51;;;;;;;4.78;3.05;;;23.90;93.80;;;;;;5093655;28;20457;-71
2021/08/05 10:27:19;;;;;;;3.38;3.08;;;24.20;94.30;;;;;;5093794;28;20036;-71
2021/08/05 10:29:47;;;;;;;5.47;3.25;;;24.00;94.20;;;;;;5093461;28;20040;-71
2021/08/05 10:32:13;;;;;;;4.82;3.60;;;23.80;94.50;;;;;;5093796;28;20071;-71
2021/08/05 10:34:39;;;;;;;6.20;3.47;;;23.60;93.90;;;;;;5093679;28;20492;-71
2021/08/05 10:37:08;;;;;;;5.63;3.65;;;23.30;94.90;;;;;;5093650;28;20503;-71
2021/08/05 10:39:34;;;;;;;3.42;2.90;;;23.20;95.40;;;;;;5093284;28;20051;-71
2021/08/05 10:42:05;;;;;;;5.18;3.78;;;23.10;96.10;;;;;;5093994;28;20032;-71
2021/08/05 10:44:30;;;;;;;5.07;3.47;;;23.30;95.70;;;;;;5093643;28;20047;-70
2021/08/05 10:46:58;;;;;;;3.47;2.72;;;23.40;96.20;;;;;;5092947;28;20044;-71
2021/08/05 10:49:24;;;;;;;5.63;3.95;;;23.40;95.60;;;;;;5093083;28;20047;-71
2021/08/05 10:51:50;;;;;;;3.35;2.55;;;23.60;95.20;;;;;;5093912;28;20028;-71
2021/08/05 10:54:50;;;;;;;4.15;3.05;;;23.60;95.20;;;;;;5093320;28;20093;-71
2021/08/05 10:57:24;;;;;;;4.55;2.83;;;23.70;95.70;;;;;;5093442;28;20048;-71
2021/08/05 11:00:08;;;;;;;5.43;3.28;;;23.70;94.70;;;;;;5093043;28;20063;-71
2021/08/05 11:02:52;;;;;;;4.43;3.10;;;23.70;94.00;;;;;;5093244;28;20044;-71
2021/08/05 11:05:24;;;;;;;3.10;2.50;;;23.60;94.00;;;;;;5093243;28;20444;-71
2021/08/05 11:07:54;;;;;;;4.22;3.10;;;23.70;94.50;;;;;;5093236;28;20064;-71
2021/08/05 11:10:25;;;;;;;2.97;2.30;;;23.50;94.10;;;;;;5092893;28;20040;-71
2021/08/05 11:13:12;;;;;;;4.03;2.53;;;23.50;93.10;;;;;;5093915;28;20071;-71
2021/08/05 11:15:37;;;;;;;4.57;3.03;;;23.30;94.30;;;;;;5093263;28;20126;-71
2021/08/05 11:18:18;;;;;;;3.50;3.00;;;23.10;95.80;;;;;;5093378;28;20071;-71
2021/08/05 11:21:04;;;;;;;4.47;2.60;;;23.20;96.00;;;;;;5093343;28;20055;-71
2021/08/05 11:23:36;;;;;;;3.00;2.60;;;23.40;95.00;;;;;;5092487;28;20052;-71
2021/08/05 11:26:09;;;;;;;3.63;2.58;;;23.40;94.50;;;;;;5093463;28;20044;-71
2021/08/05 11:28:46;;;;;;;2.30;2.08;;;23.30;94.30;;;;;;5092853;28;20476;-71
2021/08/05 11:31:26;;;;;;;4.63;2.40;;;23.30;94.70;;;;;;5093611;28;20525;-71
2021/08/05 11:33:53;;;;;;;3.10;2.75;;;23.10;95.70;;;;;;5093258;28;20043;-71
2021/08/05 11:36:25;;;;;;;3.47;2.78;;;23.00;95.80;;;;;;5093314;28;20484;-71
2021/08/05 11:39:10;;;;;;;2.97;2.30;;;23.10;95.00;;;;;;5092765;28;20042;-71
2021/08/05 11:42:01;;;;;;;6.15;2.70;;;23.10;95.00;;;;;;5093434;28;20115;-71
2021/08/05 11:44:30;;;;;;;4.25;2.28;;;23.10;94.80;;;;;;5092869;28;20438;-71
2021/08/05 11:47:10;;;;;;;4.03;2.70;;;23.50;96.20;;;;;;5091983;28;20119;-71
2021/08/05 11:49:56;;;;;;;3.28;2.90;;;23.60;93.30;;;;;;5091258;28;20044;-71
2021/08/05 11:52:31;;;;;;;3.42;2.50;;;23.60;92.40;;;;;;5093390;28;20032;-71
2021/08/05 11:55:04;;;;;;;3.05;2.20;;;23.80;93.00;;;;;;5092877;28;20067;-71
2021/08/05 11:57:47;;;;;;;3.40;2.45;;;23.90;92.50;;;;;;5093480;28;20043;-71
2021/08/05 12:00:19;;;;;;;3.33;2.55;;;24.00;91.30;;;;;;5096235;28;20063;-71
2021/08/05 12:02:46;;;;;;;2.75;2.22;;;24.00;88.50;;;;;;5096257;28;20040;-71
2021/08/05 12:05:14;;;;;;;3.25;2.00;;;24.10;86.90;;;;;;5096419;28;20036;-71
2021/08/05 12:07:51;;;;;;;3.00;2.50;;;24.20;89.50;;;;;;5096507;28;20040;-70
2021/08/05 12:10:29;;;;;;;6.07;2.80;;;24.10;88.80;;;;;;5096339;28;20067;-71
2021/08/05 12:13:00;;;;;;;4.70;2.55;;;24.20;90.20;;;;;;5096517;28;20043;-71
2021/08/05 12:15:37;;;;;;;4.10;2.20;;;24.20;91.10;;;;;;5096221;28;20078;-71
2021/08/05 12:18:18;;;;;;;2.88;2.20;;;24.20;90.40;;;;;;5095945;28;20051;-68
2021/08/05 12:20:45;;;;;;;4.10;2.30;;;24.60;91.00;;;;;;5094433;28;20036;-69
2021/08/05 12:23:21;;;;;;;3.70;2.25;;;25.00;92.00;;;;;;5096100;28;20422;-69
2021/08/05 12:25:59;;;;;;;4.53;2.92;;;25.20;90.50;;;;;;5095801;28;20388;-69
2021/08/05 12:28:26;;;;;;;5.15;2.88;;;25.20;85.10;;;;;;5095852;28;20433;-69
2021/08/05 12:31:00;;;;;;;3.60;2.35;;;25.20;84.80;;;;;;5095836;28;20116;-68
2021/08/05 12:33:28;;;;;;;2.33;2.03;;;25.40;78.90;;;;;;5095877;28;20069;-69
2021/08/05 12:36:15;;;;;;;3.72;2.00;;;25.40;77.30;;;;;;5095683;28;20024;-69
2021/08/05 12:38:49;;;;;;;3.05;2.05;;;25.20;77.30;;;;;;5095429;28;20456;-69
2021/08/05 12:41:17;;;;;;;2.90;1.80;;;25.20;75.70;;;;;;5095552;28;20042;-69
2021/08/05 12:43:44;;;;;;;3.17;1.60;;;25.40;75.80;;;;;;5095435;28;20043;-69
2021/08/05 12:46:11;;;;;;;2.88;1.58;;;25.60;75.10;;;;;;5095647;28;20044;-69